Time;durP1;ratioP1;P1;durP2;ratioP2;P2;SDS_P1;SDS_P2;PMS_P1;PMS_P2;Temp;Humidity;BMP_temperature;BMP_pressure;BME280_temperature;BME280_humidity;BME280_pressure;Samples;Min_cycle;Max_cycle;Signal;HPM_P1;HPM_P2
2023/02/15 00:00:35;;;;;;;6.07;4.63;;;14.60;67.80;;;;;;10515593;28;20482;-58
2023/02/15 00:05:36;;;;;;;7.13;4.82;;;14.60;67.70;;;;;;10533934;28;20107;-58
2023/02/15 00:10:37;;;;;;;6.43;5.05;;;14.60;67.70;;;;;;10514671;28;20107;-57
2023/02/15 00:15:37;;;;;;;6.00;5.38;;;14.50;67.60;;;;;;10515363;28;20214;-57
2023/02/15 00:20:38;;;;;;;5.78;5.03;;;14.60;67.60;;;;;;10532726;28;20116;-58
2023/02/15 00:25:39;;;;;;;6.32;4.78;;;14.50;67.60;;;;;;10532808;28;20103;-56
2023/02/15 00:30:39;;;;;;;6.07;5.20;;;14.50;67.50;;;;;;10514242;28;20059;-57
2023/02/15 00:35:40;;;;;;;6.25;4.82;;;14.50;67.40;;;;;;10514467;28;20059;-57
2023/02/15 00:40:40;;;;;;;6.18;4.25;;;14.50;67.50;;;;;;10528356;28;20048;-58
2023/02/15 00:45:41;;;;;;;6.63;5.22;;;14.50;67.50;;;;;;10510422;28;20031;-58
2023/02/15 00:50:45;;;;;;;5.88;4.78;;;14.40;67.40;;;;;;10513625;28;20103;-58
2023/02/15 00:55:45;;;;;;;6.03;4.20;;;14.40;67.40;;;;;;10531613;28;20806;-58
2023/02/15 01:00:47;;;;;;;6.10;4.60;;;14.40;67.30;;;;;;10527468;28;20065;-57
2023/02/15 01:05:49;;;;;;;6.47;5.03;;;14.40;67.40;;;;;;10531803;28;20348;-58
2023/02/15 01:10:50;;;;;;;6.20;4.72;;;14.40;67.30;;;;;;10512720;28;20028;-58
2023/02/15 01:15:54;;;;;;;7.47;5.10;;;14.40;67.30;;;;;;10511995;28;20032;-59
2023/02/15 01:20:56;;;;;;;6.15;4.50;;;14.40;67.30;;;;;;10490421;28;20024;-57
2023/02/15 01:26:02;;;;;;;5.55;4.30;;;14.40;67.20;;;;;;10512592;28;20018;-58
2023/02/15 01:31:09;;;;;;;5.95;4.30;;;14.40;67.20;;;;;;10511993;28;20422;-58
2023/02/15 01:36:10;;;;;;;6.57;4.38;;;14.30;67.10;;;;;;10512150;28;20097;-56
2023/02/15 01:41:19;;;;;;;5.32;4.38;;;14.30;67.10;;;;;;10529923;28;20020;-57
2023/02/15 01:46:39;;;;;;;6.15;5.15;;;14.30;67.10;;;;;;10513214;28;20077;-59
2023/02/15 01:51:43;;;;;;;5.03;3.40;;;14.30;67.10;;;;;;10495218;28;20038;-58
2023/02/15 01:56:44;;;;;;;6.50;4.25;;;14.30;67.00;;;;;;10495313;28;20135;-59
2023/02/15 02:01:45;;;;;;;6.50;5.22;;;14.30;67.10;;;;;;10529420;28;20387;-58
2023/02/15 02:06:49;;;;;;;5.88;4.20;;;14.30;67.60;;;;;;10494713;28;20394;-57
2023/02/15 02:11:49;;;;;;;4.80;3.67;;;14.20;66.90;;;;;;10511237;28;20030;-58
2023/02/15 02:17:06;;;;;;;6.43;4.68;;;14.20;67.00;;;;;;10529264;28;20032;-57
2023/02/15 02:23:03;;;;;;;7.60;5.07;;;14.20;66.90;;;;;;10508262;28;20169;-58
2023/02/15 02:28:24;;;;;;;6.00;4.30;;;14.20;66.90;;;;;;10519285;28;20370;-58
2023/02/15 02:34:06;;;;;;;6.00;4.40;;;14.20;66.90;;;;;;10537210;28;20051;-57
2023/02/15 02:39:42;;;;;;;6.40;4.63;;;14.20;66.80;;;;;;10509605;28;20066;-58
2023/02/15 02:44:49;;;;;;;5.90;3.97;;;14.20;66.80;;;;;;10510326;28;20026;-58
2023/02/15 02:49:58;;;;;;;5.50;3.92;;;14.20;66.80;;;;;;10518912;28;20016;-57
2023/02/15 02:55:00;;;;;;;4.95;3.92;;;14.20;66.80;;;;;;10518797;28;20070;-57
2023/02/15 03:00:04;;;;;;;4.53;3.70;;;14.10;66.70;;;;;;10501271;28;20022;-56
2023/02/15 03:05:10;;;;;;;5.28;4.18;;;14.10;66.60;;;;;;10518427;28;20103;-58
2023/02/15 03:10:11;;;;;;;4.80;4.13;;;14.10;66.60;;;;;;10488840;28;20430;-59
2023/02/15 03:15:20;;;;;;;5.88;4.63;;;14.10;66.60;;;;;;10517236;28;20032;-58
2023/02/15 03:20:36;;;;;;;5.27;3.70;;;14.10;66.50;;;;;;10517003;28;20016;-58
2023/02/15 03:25:41;;;;;;;5.38;4.07;;;14.10;66.60;;;;;;10495185;28;20020;-58
2023/02/15 03:30:46;;;;;;;5.65;4.43;;;14.10;66.60;;;;;;10516892;28;20059;-58
2023/02/15 03:36:13;;;;;;;5.75;4.60;;;14.00;66.40;;;;;;10517406;28;20427;-57
2023/02/15 03:41:17;;;;;;;6.75;5.35;;;14.10;66.50;;;;;;10518983;28;20530;-56
2023/02/15 03:46:32;;;;;;;7.07;4.68;;;14.10;64.90;;;;;;10516378;28;20385;-58
2023/02/15 03:51:37;;;;;;;6.60;4.65;;;14.30;64.30;;;;;;10517339;28;20025;-57
2023/02/15 03:56:41;;;;;;;6.00;4.75;;;14.50;63.50;;;;;;10499518;28;20495;-57
2023/02/15 04:02:12;;;;;;;5.35;4.07;;;14.70;62.90;;;;;;10515765;28;20032;-58
2023/02/15 04:07:13;;;;;;;5.70;4.22;;;14.90;62.30;;;;;;10517766;28;20639;-57
2023/02/15 04:12:14;;;;;;;6.50;4.00;;;15.20;61.50;;;;;;10515049;28;20016;-57
2023/02/15 04:17:14;;;;;;;5.72;4.20;;;15.40;60.70;;;;;;10515105;28;20050;-57
2023/02/15 04:27:35;;;;;;;5.47;4.37;;;15.80;59.50;;;;;;10516302;28;20506;-58
2023/02/15 04:32:36;;;;;;;6.45;4.28;;;15.90;59.20;;;;;;10512830;28;20048;-56
2023/02/15 04:37:37;;;;;;;5.50;4.20;;;16.10;59.50;;;;;;10493812;28;20024;-57
2023/02/15 04:42:38;;;;;;;5.75;4.28;;;16.20;59.40;;;;;;10511909;28;20493;-59
2023/02/15 04:47:39;;;;;;;7.45;4.38;;;16.20;59.30;;;;;;10512361;28;20016;-57
2023/02/15 04:52:39;;;;;;;7.07;4.55;;;16.30;59.10;;;;;;10529886;28;20527;-57
2023/02/15 04:57:40;;;;;;;5.32;3.70;;;16.30;59.30;;;;;;10510467;28;20057;-57
2023/02/15 05:02:41;;;;;;;4.80;3.25;;;16.30;59.20;;;;;;10486760;28;20020;-59
2023/02/15 05:07:41;;;;;;;5.28;3.88;;;16.30;59.00;;;;;;10512837;28;20111;-57
2023/02/15 05:12:42;;;;;;;4.60;3.50;;;16.40;58.90;;;;;;10530407;28;20114;-57
2023/02/15 05:17:42;;;;;;;5.15;3.88;;;16.40;58.90;;;;;;10510385;28;20128;-57
2023/02/15 05:22:44;;;;;;;4.95;3.30;;;16.40;58.90;;;;;;10528422;28;20104;-57
2023/02/15 05:33:03;;;;;;;6.03;3.72;;;16.50;58.60;;;;;;10514221;28;20048;-56
2023/02/15 05:38:04;;;;;;;5.50;4.35;;;16.50;58.50;;;;;;10512282;28;20063;-57
2023/02/15 05:43:05;;;;;;;5.70;3.83;;;16.50;58.40;;;;;;10516793;28;20025;-57
2023/02/15 05:48:05;;;;;;;4.05;3.05;;;16.60;58.20;;;;;;10511958;28;20043;-58
2023/02/15 05:53:06;;;;;;;5.53;3.58;;;16.60;58.90;;;;;;10528966;28;20655;-56
2023/02/15 05:58:07;;;;;;;4.53;3.25;;;16.60;58.40;;;;;;10510860;28;20066;-58
2023/02/15 06:03:08;;;;;;;4.10;3.03;;;16.70;58.10;;;;;;10511212;28;20028;-57
2023/02/15 06:08:09;;;;;;;6.25;3.20;;;16.70;58.10;;;;;;10511452;28;20648;-56
2023/02/15 06:13:09;;;;;;;6.50;3.58;;;16.70;58.20;;;;;;10529323;28;20054;-57
2023/02/15 06:18:10;;;;;;;8.88;3.97;;;16.70;59.20;;;;;;10529289;28;20129;-56
2023/02/15 06:23:11;;;;;;;10.00;4.22;;;16.80;59.50;;;;;;10528878;28;20084;-57
2023/02/15 06:28:12;;;;;;;19.55;4.57;;;16.90;59.80;;;;;;10511134;28;20577;-57
2023/02/15 06:33:12;;;;;;;23.35;5.25;;;16.70;60.60;;;;;;10528452;28;20043;-56
2023/02/15 06:38:13;;;;;;;18.48;4.70;;;16.80;60.70;;;;;;10509190;28;20538;-57
2023/02/15 06:43:14;;;;;;;16.05;4.70;;;16.80;60.30;;;;;;10494996;28;20065;-58
2023/02/15 06:48:15;;;;;;;16.67;5.22;;;16.90;60.20;;;;;;10528866;28;20529;-56
2023/02/15 06:53:15;;;;;;;17.08;6.20;;;16.90;60.30;;;;;;10509951;28;20032;-56
2023/02/15 06:58:16;;;;;;;19.38;7.93;;;16.90;60.20;;;;;;10509905;28;20099;-56
2023/02/15 07:03:17;;;;;;;18.52;6.28;;;17.20;59.50;;;;;;10504892;28;20020;-58
2023/02/15 07:08:19;;;;;;;19.27;6.78;;;17.30;58.90;;;;;;10531114;28;20064;-57
2023/02/15 07:13:21;;;;;;;14.43;5.32;;;17.30;58.70;;;;;;10517591;28;20039;-59
2023/02/15 07:18:21;;;;;;;18.08;5.45;;;17.30;58.50;;;;;;10485566;28;20016;-58
2023/02/15 07:23:22;;;;;;;16.95;5.15;;;17.20;58.50;;;;;;10535239;28;20047;-57
2023/02/15 07:28:22;;;;;;;23.67;5.50;;;17.10;58.60;;;;;;10517276;28;20058;-57
2023/02/15 07:33:24;;;;;;;19.48;7.78;;;17.10;58.50;;;;;;10534541;28;20131;-54
2023/02/15 07:38:27;;;;;;;15.25;5.43;;;17.10;58.80;;;;;;10533810;28;20039;-57
2023/02/15 07:43:29;;;;;;;11.38;4.80;;;16.90;59.40;;;;;;10498874;28;20016;-57
2023/02/15 07:48:30;;;;;;;15.43;5.18;;;16.80;59.90;;;;;;10516267;28;20032;-58
2023/02/15 07:53:31;;;;;;;13.30;5.07;;;16.70;60.30;;;;;;10515367;28;20108;-58
2023/02/15 07:58:52;;;;;;;13.55;5.28;;;16.70;61.10;;;;;;10515316;28;20030;-57
2023/02/15 08:03:54;;;;;;;15.82;6.63;;;16.50;61.60;;;;;;10517473;28;20152;-57
2023/02/15 08:08:54;;;;;;;13.07;5.45;;;16.50;61.30;;;;;;10515867;28;20078;-57
2023/02/15 08:14:00;;;;;;;12.63;5.10;;;16.50;61.10;;;;;;10532858;28;20067;-56
2023/02/15 08:19:22;;;;;;;11.80;4.47;;;16.40;61.40;;;;;;10489843;28;20612;-57
2023/02/15 08:24:28;;;;;;;14.52;4.85;;;16.20;62.20;;;;;;10531818;28;20115;-55
2023/02/15 08:29:30;;;;;;;16.55;5.93;;;16.20;62.70;;;;;;10514186;28;20035;-54
2023/02/15 08:34:35;;;;;;;10.02;4.90;;;16.20;62.00;;;;;;10482776;28;20040;-57
2023/02/15 08:39:36;;;;;;;11.65;5.47;;;16.10;62.50;;;;;;10514424;28;20020;-56
2023/02/15 08:44:36;;;;;;;10.27;5.53;;;16.10;62.50;;;;;;10495787;28;20032;-56
2023/02/15 08:49:37;;;;;;;10.20;4.82;;;16.10;62.70;;;;;;10530376;28;20068;-57
2023/02/15 08:54:37;;;;;;;11.13;5.50;;;16.00;62.60;;;;;;10512828;28;20119;-56
2023/02/15 08:59:38;;;;;;;8.15;4.60;;;16.10;62.60;;;;;;10530842;28;20078;-56
2023/02/15 09:04:39;;;;;;;13.30;5.60;;;16.00;62.90;;;;;;10513331;28;20097;-57
2023/02/15 09:09:39;;;;;;;8.07;4.53;;;15.80;63.70;;;;;;10530962;28;20074;-57
2023/02/15 09:14:40;;;;;;;8.23;4.93;;;15.70;64.00;;;;;;10512385;28;20147;-56
2023/02/15 09:19:41;;;;;;;11.48;4.22;;;15.70;64.40;;;;;;10525154;28;20149;-56
2023/02/15 09:24:41;;;;;;;16.17;6.10;;;15.60;64.50;;;;;;10511492;28;20029;-56
2023/02/15 09:29:42;;;;;;;13.63;5.38;;;15.50;64.60;;;;;;10512535;28;20072;-56
2023/02/15 09:34:43;;;;;;;13.52;4.80;;;15.50;64.80;;;;;;10529673;28;20122;-56
2023/02/15 09:39:44;;;;;;;14.32;5.20;;;15.50;65.40;;;;;;10512130;28;20371;-55
2023/02/15 09:45:25;;;;;;;14.13;6.00;;;15.60;65.30;;;;;;10511089;28;20023;-56
2023/02/15 09:50:51;;;;;;;26.75;7.10;;;15.50;65.50;;;;;;10443107;28;20697;-56
2023/02/15 09:56:37;;;;;;;12.60;4.97;;;15.50;65.30;;;;;;10527992;28;20040;-55
2023/02/15 10:01:44;;;;;;;12.90;4.95;;;15.50;65.20;;;;;;10513634;28;20104;-55
2023/02/15 10:07:13;;;;;;;10.05;4.68;;;15.50;65.30;;;;;;10526657;28;20359;-56
2023/02/15 10:12:42;;;;;;;7.95;4.45;;;15.50;65.30;;;;;;10526830;28;20096;-56
2023/02/15 10:17:57;;;;;;;14.30;5.05;;;15.40;65.30;;;;;;10520679;28;20032;-55
2023/02/15 10:23:28;;;;;;;12.98;5.40;;;15.40;65.60;;;;;;10524984;28;20032;-56
2023/02/15 10:28:51;;;;;;;8.95;5.15;;;15.50;65.60;;;;;;10527869;28;20522;-54
2023/02/15 10:34:10;;;;;;;9.00;5.47;;;15.50;65.80;;;;;;10510834;28;20044;-54
2023/02/15 10:39:28;;;;;;;9.07;5.23;;;15.50;65.90;;;;;;10512345;28;20057;-56
2023/02/15 10:44:55;;;;;;;10.38;5.38;;;15.50;66.00;;;;;;10518235;28;20051;-55
2023/02/15 10:50:45;;;;;;;13.07;6.22;;;15.50;66.00;;;;;;10536620;28;20019;-56
2023/02/15 10:56:16;;;;;;;8.52;4.85;;;15.50;65.90;;;;;;10534639;28;20031;-56
2023/02/15 11:01:33;;;;;;;9.07;5.40;;;15.50;66.00;;;;;;10516184;28;20039;-55
2023/02/15 11:06:36;;;;;;;11.45;6.00;;;15.50;66.00;;;;;;10518574;28;20024;-53
2023/02/15 11:11:41;;;;;;;9.43;6.38;;;15.50;66.20;;;;;;10517925;28;20028;-55
2023/02/15 11:16:48;;;;;;;7.07;4.60;;;15.50;66.20;;;;;;10535628;28;20717;-54
2023/02/15 11:21:54;;;;;;;10.18;6.00;;;15.50;66.40;;;;;;10508993;28;20677;-55
2023/02/15 11:27:21;;;;;;;10.60;6.00;;;15.50;66.40;;;;;;10517404;28;20103;-54
2023/02/15 11:32:36;;;;;;;9.18;5.40;;;15.60;66.40;;;;;;10513742;28;20048;-54
2023/02/15 11:37:53;;;;;;;13.13;5.70;;;15.50;66.30;;;;;;10499998;28;20028;-55
2023/02/15 11:43:04;;;;;;;14.25;5.90;;;15.50;66.60;;;;;;10521948;28;20123;-54
2023/02/15 11:48:14;;;;;;;9.85;5.90;;;15.50;66.80;;;;;;10517098;28;20031;-55
2023/02/15 11:53:21;;;;;;;12.05;5.65;;;15.50;66.80;;;;;;10513904;28;20537;-54
2023/02/15 11:58:42;;;;;;;9.27;5.05;;;15.50;66.70;;;;;;10515557;28;20115;-55
2023/02/15 12:03:53;;;;;;;16.15;6.13;;;15.50;66.70;;;;;;10533057;28;20028;-55
2023/02/15 12:09:06;;;;;;;12.57;6.00;;;15.40;66.60;;;;;;10516034;28;20031;-55
2023/02/15 12:14:15;;;;;;;15.77;5.82;;;15.50;66.70;;;;;;10533176;28;20169;-54
2023/02/15 12:19:37;;;;;;;11.50;6.30;;;15.40;66.70;;;;;;10514487;28;20020;-54
2023/02/15 12:24:46;;;;;;;11.75;6.30;;;15.40;66.70;;;;;;10513381;28;20466;-56
2023/02/15 12:29:56;;;;;;;8.75;5.55;;;15.40;66.70;;;;;;10496506;28;20023;-55
2023/02/15 12:35:27;;;;;;;8.70;4.82;;;15.40;66.80;;;;;;10531644;28;20048;-55
2023/02/15 12:40:30;;;;;;;17.00;6.57;;;15.40;66.70;;;;;;10526221;28;20031;-54
2023/02/15 12:45:34;;;;;;;11.00;6.38;;;15.40;67.00;;;;;;10514513;28;20077;-53
2023/02/15 12:50:35;;;;;;;12.95;6.85;;;15.50;66.70;;;;;;10531374;28;20464;-56
2023/02/15 12:55:36;;;;;;;11.05;6.35;;;15.50;66.60;;;;;;10529477;28;20114;-54
2023/02/15 13:00:37;;;;;;;14.48;7.20;;;15.50;66.60;;;;;;10529478;28;20095;-55
2023/02/15 13:05:42;;;;;;;11.25;6.10;;;15.40;66.60;;;;;;10528425;28;20432;-54
2023/02/15 13:10:51;;;;;;;11.23;7.10;;;15.40;66.70;;;;;;10493687;28;20024;-54
2023/02/15 13:15:57;;;;;;;19.70;7.63;;;15.50;66.60;;;;;;10529750;28;20052;-55
2023/02/15 13:21:16;;;;;;;10.77;5.13;;;15.40;66.60;;;;;;10512602;28;20074;-54
2023/02/15 13:26:23;;;;;;;17.77;7.57;;;15.40;66.50;;;;;;10495363;28;20028;-55
2023/02/15 13:31:28;;;;;;;17.63;6.70;;;15.40;66.80;;;;;;10512122;28;20048;-54
2023/02/15 13:37:08;;;;;;;16.48;7.68;;;15.30;66.80;;;;;;10499110;28;20052;-56
2023/02/15 13:42:43;;;;;;;16.00;8.20;;;15.30;66.70;;;;;;10519579;28;20032;-54
2023/02/15 13:48:09;;;;;;;22.08;7.35;;;15.30;66.70;;;;;;10497659;28;20085;-54
2023/02/15 13:53:24;;;;;;;17.05;7.15;;;15.30;66.70;;;;;;10509137;28;20103;-56
2023/02/15 13:59:18;;;;;;;13.73;6.50;;;15.30;66.80;;;;;;10521620;28;20035;-53
2023/02/15 14:04:52;;;;;;;12.05;5.95;;;15.30;66.90;;;;;;10523462;28;20024;-53
2023/02/15 14:10:21;;;;;;;11.02;5.57;;;15.20;66.90;;;;;;10529053;28;20020;-54
2023/02/15 14:15:46;;;;;;;10.35;6.38;;;15.20;66.90;;;;;;10515589;28;20032;-53
2023/02/15 14:21:21;;;;;;;10.80;6.40;;;15.20;66.90;;;;;;10522372;28;20559;-54
2023/02/15 14:26:55;;;;;;;13.40;7.00;;;15.10;66.90;;;;;;10516758;28;20121;-53
2023/02/15 14:32:04;;;;;;;10.10;6.18;;;15.10;66.90;;;;;;10537078;28;20040;-52
2023/02/15 14:37:05;;;;;;;10.23;6.38;;;15.10;66.90;;;;;;10502693;28;20043;-53
2023/02/15 14:42:33;;;;;;;9.93;6.45;;;15.20;66.80;;;;;;10518488;28;20016;-52
2023/02/15 14:47:42;;;;;;;9.57;5.95;;;15.10;66.70;;;;;;10519796;28;20039;-53
2023/02/15 14:53:30;;;;;;;9.23;6.70;;;15.10;66.70;;;;;;10518229;28;20064;-53
2023/02/15 14:58:31;;;;;;;8.73;7.32;;;15.10;66.70;;;;;;10519926;28;20038;-53
2023/02/15 15:03:32;;;;;;;8.65;5.95;;;15.10;66.70;;;;;;10497301;28;20168;-54
2023/02/15 15:08:37;;;;;;;13.63;5.97;;;15.10;66.70;;;;;;10517878;28;20024;-53
2023/02/15 15:13:51;;;;;;;8.38;5.60;;;15.20;66.60;;;;;;10516330;28;20068;-51
2023/02/15 15:18:52;;;;;;;8.23;6.10;;;15.20;66.60;;;;;;10513348;28;20043;-53
2023/02/15 15:23:53;;;;;;;15.10;6.35;;;15.20;66.40;;;;;;10516224;28;20480;-54
2023/02/15 15:28:57;;;;;;;15.35;6.47;;;15.30;66.30;;;;;;10533469;28;20026;-52
2023/02/15 15:34:45;;;;;;;14.93;7.00;;;15.40;66.30;;;;;;10533873;28;20047;-52
2023/02/15 15:40:20;;;;;;;14.93;6.72;;;15.40;66.20;;;;;;10491051;28;20696;-53
2023/02/15 15:45:42;;;;;;;11.23;6.45;;;15.30;66.30;;;;;;10516757;28;20028;-54
2023/02/15 15:50:43;;;;;;;13.07;6.72;;;15.30;66.40;;;;;;10532980;28;20606;-53
2023/02/15 15:55:48;;;;;;;13.55;6.25;;;15.20;66.40;;;;;;10497760;28;20024;-53
2023/02/15 16:00:54;;;;;;;11.68;7.22;;;15.30;66.30;;;;;;10530618;28;20103;-52
2023/02/15 16:05:59;;;;;;;10.32;5.95;;;15.30;66.30;;;;;;10533929;28;20498;-54
2023/02/15 16:11:19;;;;;;;12.77;7.00;;;15.40;65.90;;;;;;10533360;28;20023;-54
2023/02/15 16:16:24;;;;;;;14.07;7.72;;;15.40;65.70;;;;;;10498507;28;20141;-52
2023/02/15 16:21:35;;;;;;;12.57;8.02;;;15.40;65.90;;;;;;10531582;28;20051;-53
2023/02/15 16:27:33;;;;;;;14.80;6.65;;;15.30;66.00;;;;;;10519582;28;20028;-52
2023/02/15 16:32:36;;;;;;;11.50;6.75;;;15.50;68.00;;;;;;10318687;28;20522;-50
2023/02/15 16:37:36;;;;;;;15.77;8.95;;;15.70;67.70;;;;;;10434379;28;20123;-53
2023/02/15 16:42:37;;;;;;;20.50;7.18;;;15.90;67.60;;;;;;10471967;28;20400;-53
2023/02/15 16:47:47;;;;;;;10.07;5.97;;;15.90;67.30;;;;;;10489956;28;20028;-54
2023/02/15 16:52:48;;;;;;;9.75;6.50;;;15.90;67.30;;;;;;10489682;28;20055;-51
2023/02/15 16:57:50;;;;;;;12.07;7.65;;;15.80;66.50;;;;;;10489045;28;20427;-50
2023/02/15 17:03:14;;;;;;;14.63;9.93;;;15.50;67.30;;;;;;10470808;28;20021;-51
2023/02/15 17:08:23;;;;;;;20.45;11.35;;;15.60;67.00;;;;;;10474893;28;20058;-53
2023/02/15 17:13:25;;;;;;;;;;;15.70;66.10;;;;;;10488056;28;20029;-53
2023/02/15 17:18:36;;;;;;;14.73;9.45;;;16.00;68.90;;;;;;10457439;28;19905;-53
2023/02/15 17:23:44;;;;;;;15.70;9.60;;;16.10;68.20;;;;;;10488109;28;20025;-54
2023/02/15 17:28:52;;;;;;;15.85;9.38;;;16.20;67.50;;;;;;10470495;28;20491;-55
2023/02/15 17:33:54;;;;;;;16.38;11.70;;;16.10;67.30;;;;;;10488029;28;20087;-55
2023/02/15 17:38:58;;;;;;;19.23;10.45;;;16.00;67.30;;;;;;10440632;28;20463;-54
2023/02/15 17:43:59;;;;;;;16.30;10.25;;;15.90;67.50;;;;;;10487099;28;20269;-55
2023/02/15 17:49:00;;;;;;;22.50;11.52;;;15.90;67.70;;;;;;10486703;28;20383;-55
2023/02/15 17:59:22;;;;;;;24.08;13.02;;;15.80;67.50;;;;;;10488370;28;20066;-55
2023/02/15 18:15:05;;;;;;;15.07;10.18;;;15.90;67.60;;;;;;10487875;28;20575;-55
2023/02/15 18:20:27;;;;;;;18.52;11.15;;;15.80;67.50;;;;;;10468615;28;20368;-56
2023/02/15 18:25:28;;;;;;;17.52;10.98;;;15.80;67.60;;;;;;10468621;28;20056;-56
2023/02/15 18:30:29;;;;;;;16.25;10.10;;;15.70;67.80;;;;;;10452126;28;20032;-55
2023/02/15 18:35:32;;;;;;;18.50;10.75;;;15.70;68.10;;;;;;10467817;28;20123;-58
2023/02/15 18:40:32;;;;;;;15.65;10.73;;;15.70;67.50;;;;;;10468386;28;20025;-54
2023/02/15 18:45:36;;;;;;;17.25;10.23;;;15.60;67.50;;;;;;10484786;28;20040;-54
2023/02/15 18:50:37;;;;;;;14.65;10.05;;;15.70;67.10;;;;;;10485900;28;20077;-55
2023/02/15 18:55:38;;;;;;;19.00;11.27;;;15.70;66.90;;;;;;10466301;28;20131;-55
2023/02/15 19:00:39;;;;;;;18.38;11.70;;;15.70;66.90;;;;;;10467753;28;20353;-54
2023/02/15 19:05:43;;;;;;;14.15;10.27;;;15.80;66.50;;;;;;10493045;28;20035;-54
2023/02/15 19:10:44;;;;;;;14.88;10.60;;;15.80;66.40;;;;;;10475794;28;20641;-55
2023/02/15 19:15:45;;;;;;;13.70;9.75;;;15.80;66.10;;;;;;10475003;28;20029;-53
2023/02/15 19:20:47;;;;;;;15.63;10.40;;;15.90;65.60;;;;;;10472809;28;20013;-55
2023/02/15 19:25:50;;;;;;;15.65;11.07;;;15.90;65.60;;;;;;10475493;28;20379;-55
2023/02/15 19:30:51;;;;;;;17.63;10.93;;;15.90;65.70;;;;;;10475632;28;20041;-56
2023/02/15 19:35:55;;;;;;;13.25;9.18;;;15.90;66.10;;;;;;10492931;28;20107;-56
2023/02/15 19:41:06;;;;;;;17.63;10.75;;;15.90;65.60;;;;;;10475532;28;20027;-54
2023/02/15 19:46:14;;;;;;;13.98;9.48;;;16.00;65.40;;;;;;10451689;28;20024;-55
2023/02/15 19:51:15;;;;;;;15.77;9.98;;;16.00;66.20;;;;;;10475696;28;20621;-56
2023/02/15 19:56:23;;;;;;;15.30;10.25;;;15.90;66.10;;;;;;10472845;28;20036;-57
2023/02/15 20:01:24;;;;;;;14.80;10.52;;;15.90;66.50;;;;;;10472132;28;20044;-55
2023/02/15 20:06:24;;;;;;;12.75;9.40;;;15.90;66.50;;;;;;10474078;28;20024;-54
2023/02/15 20:11:25;;;;;;;15.77;10.52;;;15.90;66.40;;;;;;10489867;28;20423;-56
2023/02/15 20:16:27;;;;;;;17.92;10.48;;;15.90;66.50;;;;;;10487511;28;20024;-55
2023/02/15 20:21:28;;;;;;;15.32;10.23;;;15.90;67.00;;;;;;10470413;28;20048;-54
2023/02/15 20:26:30;;;;;;;14.25;10.50;;;15.80;67.30;;;;;;10472059;28;20020;-56
2023/02/15 20:31:31;;;;;;;15.20;10.40;;;15.70;66.70;;;;;;10489008;28;20094;-56
2023/02/15 20:36:32;;;;;;;16.63;10.25;;;15.60;66.90;;;;;;10471289;28;20032;-56
2023/02/15 20:41:37;;;;;;;24.10;10.68;;;15.60;67.00;;;;;;10472049;28;20016;-56
2023/02/15 20:46:38;;;;;;;13.27;9.90;;;15.50;67.00;;;;;;10488736;28;20108;-59
2023/02/15 20:51:40;;;;;;;14.15;9.55;;;15.40;67.20;;;;;;10488365;28;20059;-55
2023/02/15 20:56:42;;;;;;;14.82;11.45;;;15.40;67.30;;;;;;10470553;28;20114;-54
2023/02/15 21:01:42;;;;;;;13.00;10.23;;;15.30;67.40;;;;;;10454210;28;20464;-55
2023/02/15 21:06:44;;;;;;;13.40;9.98;;;15.30;67.50;;;;;;10453580;28;20048;-55
2023/02/15 21:11:45;;;;;;;10.52;8.98;;;15.30;67.60;;;;;;10487215;28;20025;-56
2023/02/15 21:16:47;;;;;;;13.05;9.18;;;15.20;67.50;;;;;;10468713;28;20042;-56
2023/02/15 21:21:51;;;;;;;12.00;9.95;;;15.20;67.60;;;;;;10470229;28;20052;-55
2023/02/15 21:26:54;;;;;;;12.93;9.93;;;15.10;67.70;;;;;;10470702;28;20039;-55
2023/02/15 21:31:59;;;;;;;14.00;9.43;;;15.10;67.90;;;;;;10454335;28;20109;-55
2023/02/15 21:36:59;;;;;;;15.05;10.30;;;15.10;67.90;;;;;;10488533;28;20524;-56
2023/02/15 21:52:50;;;;;;;10.68;8.80;;;15.00;68.30;;;;;;10473773;28;20032;-55
2023/02/15 21:57:50;;;;;;;12.25;9.00;;;14.90;68.20;;;;;;10470368;28;20032;-56
2023/02/15 22:02:56;;;;;;;12.45;10.82;;;14.90;68.20;;;;;;10447523;28;20090;-56
2023/02/15 22:07:58;;;;;;;11.05;8.93;;;14.90;68.30;;;;;;10453286;28;20012;-57
2023/02/15 22:13:01;;;;;;;10.65;9.48;;;14.90;68.30;;;;;;10487923;28;20028;-56
2023/02/15 22:18:04;;;;;;;15.10;9.90;;;14.90;68.30;;;;;;10459271;28;20025;-56
2023/02/15 22:23:04;;;;;;;14.40;9.38;;;14.80;68.30;;;;;;10485358;28;20025;-56
2023/02/15 22:28:15;;;;;;;12.30;9.10;;;14.80;68.30;;;;;;10469921;28;20041;-55
2023/02/15 22:33:29;;;;;;;13.80;9.35;;;14.80;68.30;;;;;;10471039;28;20071;-56
2023/02/15 22:38:29;;;;;;;12.10;9.25;;;14.80;68.30;;;;;;10475462;28;20040;-56
2023/02/15 22:43:36;;;;;;;12.77;9.63;;;14.80;68.30;;;;;;10495354;28;20436;-57
2023/02/15 22:48:37;;;;;;;12.98;9.43;;;14.80;68.30;;;;;;10477395;28;20028;-55
2023/02/15 22:53:38;;;;;;;14.07;10.15;;;14.80;68.30;;;;;;10476784;28;20058;-57
2023/02/15 22:58:38;;;;;;;13.02;11.15;;;14.80;68.30;;;;;;10494907;28;20480;-56
2023/02/15 23:03:39;;;;;;;12.30;9.48;;;14.70;68.20;;;;;;10494585;28;20025;-56
2023/02/15 23:08:40;;;;;;;11.75;10.18;;;14.70;68.20;;;;;;10494222;28;20098;-56
2023/02/15 23:13:40;;;;;;;12.65;10.25;;;14.70;68.20;;;;;;10476155;28;20030;-56
2023/02/15 23:18:44;;;;;;;11.57;9.55;;;14.70;68.20;;;;;;10463555;28;20100;-56
2023/02/15 23:23:50;;;;;;;10.50;8.75;;;14.70;68.20;;;;;;10489647;28;20032;-55
2023/02/15 23:28:51;;;;;;;11.68;9.30;;;14.70;68.20;;;;;;10475411;28;20709;-55
2023/02/15 23:33:53;;;;;;;12.52;9.77;;;14.60;68.20;;;;;;10474713;28;20619;-56
2023/02/15 23:38:56;;;;;;;13.98;10.00;;;14.60;68.20;;;;;;10475564;28;20025;-57
2023/02/15 23:44:01;;;;;;;10.80;9.05;;;14.60;68.20;;;;;;10475004;28;20384;-57
2023/02/15 23:49:13;;;;;;;12.80;9.45;;;14.60;68.20;;;;;;10475373;28;20035;-55
2023/02/15 23:54:17;;;;;;;11.18;8.80;;;14.60;68.20;;;;;;10486787;28;20507;-54
2023/02/15 23:59:22;;;;;;;13.68;9.38;;;14.60;68.20;;;;;;10492348;28;20150;-55
